sensor_id;sensor_type;location;lat;lon;timestamp;P1;durP1;ratioP1;P2;durP2;ratioP2
46731;SDS011;32477;51.474;5.696;2023-04-25T00:00:11;11.80;;;4.20;;
46731;SDS011;32477;51.474;5.696;2023-04-25T00:02:36;9.55;;;3.95;;
46731;SDS011;32477;51.474;5.696;2023-04-25T00:05:02;10.40;;;3.70;;
46731;SDS011;32477;51.474;5.696;2023-04-25T00:07:28;20.33;;;4.18;;
46731;SDS011;32477;51.474;5.696;2023-04-25T00:09:54;14.25;;;3.92;;
46731;SDS011;32477;51.474;5.696;2023-04-25T00:12:20;26.90;;;4.72;;
46731;SDS011;32477;51.474;5.696;2023-04-25T00:14:47;16.50;;;3.83;;
46731;SDS011;32477;51.474;5.696;2023-04-25T00:17:14;18.80;;;4.20;;
46731;SDS011;32477;51.474;5.696;2023-04-25T00:19:41;17.05;;;3.97;;
46731;SDS011;32477;51.474;5.696;2023-04-25T00:22:09;17.60;;;4.25;;
46731;SDS011;32477;51.474;5.696;2023-04-25T00:24:35;10.82;;;3.78;;
46731;SDS011;32477;51.474;5.696;2023-04-25T00:27:01;14.00;;;4.15;;
46731;SDS011;32477;51.474;5.696;2023-04-25T00:29:27;14.48;;;3.28;;
46731;SDS011;32477;51.474;5.696;2023-04-25T00:31:52;20.10;;;3.95;;
46731;SDS011;32477;51.474;5.696;2023-04-25T00:34:18;21.20;;;3.28;;
46731;SDS011;32477;51.474;5.696;2023-04-25T00:36:43;20.50;;;4.22;;
46731;SDS011;32477;51.474;5.696;2023-04-25T00:39:09;20.02;;;4.43;;
46731;SDS011;32477;51.474;5.696;2023-04-25T00:41:36;12.63;;;3.72;;
46731;SDS011;32477;51.474;5.696;2023-04-25T00:44:03;14.40;;;4.10;;
46731;SDS011;32477;51.474;5.696;2023-04-25T00:46:31;15.30;;;3.42;;
46731;SDS011;32477;51.474;5.696;2023-04-25T00:48:57;16.70;;;5.05;;
46731;SDS011;32477;51.474;5.696;2023-04-25T00:51:23;16.08;;;3.92;;
46731;SDS011;32477;51.474;5.696;2023-04-25T00:53:51;17.45;;;3.88;;
46731;SDS011;32477;51.474;5.696;2023-04-25T00:56:17;24.35;;;4.00;;
46731;SDS011;32477;51.474;5.696;2023-04-25T00:58:42;13.23;;;3.80;;
46731;SDS011;32477;51.474;5.696;2023-04-25T01:01:09;16.38;;;3.78;;
46731;SDS011;32477;51.474;5.696;2023-04-25T01:03:37;12.77;;;3.75;;
46731;SDS011;32477;51.474;5.696;2023-04-25T01:06:07;26.10;;;3.80;;
46731;SDS011;32477;51.474;5.696;2023-04-25T01:08:34;12.45;;;4.00;;
46731;SDS011;32477;51.474;5.696;2023-04-25T01:11:00;20.52;;;4.22;;
46731;SDS011;32477;51.474;5.696;2023-04-25T01:13:29;23.40;;;5.57;;
46731;SDS011;32477;51.474;5.696;2023-04-25T01:15:55;18.65;;;5.38;;
46731;SDS011;32477;51.474;5.696;2023-04-25T01:18:20;19.33;;;4.55;;
46731;SDS011;32477;51.474;5.696;2023-04-25T01:20:46;18.30;;;3.90;;
46731;SDS011;32477;51.474;5.696;2023-04-25T01:23:16;22.02;;;4.30;;
46731;SDS011;32477;51.474;5.696;2023-04-25T01:25:42;25.50;;;5.95;;
46731;SDS011;32477;51.474;5.696;2023-04-25T01:28:10;20.08;;;4.80;;
46731;SDS011;32477;51.474;5.696;2023-04-25T01:30:53;13.90;;;4.90;;
46731;SDS011;32477;51.474;5.696;2023-04-25T01:33:19;17.60;;;4.55;;
46731;SDS011;32477;51.474;5.696;2023-04-25T01:35:46;29.33;;;4.82;;
46731;SDS011;32477;51.474;5.696;2023-04-25T01:38:12;30.00;;;4.75;;
46731;SDS011;32477;51.474;5.696;2023-04-25T01:40:39;17.73;;;4.85;;
46731;SDS011;32477;51.474;5.696;2023-04-25T01:43:05;14.77;;;4.43;;
46731;SDS011;32477;51.474;5.696;2023-04-25T01:45:33;20.20;;;5.50;;
46731;SDS011;32477;51.474;5.696;2023-04-25T01:47:59;21.10;;;4.63;;
46731;SDS011;32477;51.474;5.696;2023-04-25T01:50:25;26.10;;;5.65;;
46731;SDS011;32477;51.474;5.696;2023-04-25T01:52:50;27.77;;;5.15;;
46731;SDS011;32477;51.474;5.696;2023-04-25T01:55:16;31.45;;;6.05;;
46731;SDS011;32477;51.474;5.696;2023-04-25T01:57:43;14.77;;;5.55;;
46731;SDS011;32477;51.474;5.696;2023-04-25T02:00:08;23.90;;;6.30;;
46731;SDS011;32477;51.474;5.696;2023-04-25T02:02:35;23.30;;;5.97;;
46731;SDS011;32477;51.474;5.696;2023-04-25T02:05:01;26.92;;;6.30;;
46731;SDS011;32477;51.474;5.696;2023-04-25T02:07:26;30.00;;;6.28;;
46731;SDS011;32477;51.474;5.696;2023-04-25T02:09:52;18.42;;;6.45;;
46731;SDS011;32477;51.474;5.696;2023-04-25T02:12:18;30.65;;;5.47;;
46731;SDS011;32477;51.474;5.696;2023-04-25T02:14:43;18.25;;;5.55;;
46731;SDS011;32477;51.474;5.696;2023-04-25T02:17:09;22.80;;;6.00;;
46731;SDS011;32477;51.474;5.696;2023-04-25T02:19:35;22.10;;;5.72;;
46731;SDS011;32477;51.474;5.696;2023-04-25T02:22:00;26.05;;;5.13;;
46731;SDS011;32477;51.474;5.696;2023-04-25T02:24:26;22.52;;;5.25;;
46731;SDS011;32477;51.474;5.696;2023-04-25T02:26:52;28.77;;;6.10;;
46731;SDS011;32477;51.474;5.696;2023-04-25T02:29:20;22.33;;;5.70;;
46731;SDS011;32477;51.474;5.696;2023-04-25T02:31:46;20.73;;;5.32;;
46731;SDS011;32477;51.474;5.696;2023-04-25T02:34:11;26.50;;;5.57;;
46731;SDS011;32477;51.474;5.696;2023-04-25T02:36:37;29.20;;;5.18;;
46731;SDS011;32477;51.474;5.696;2023-04-25T02:39:03;16.15;;;5.05;;
46731;SDS011;32477;51.474;5.696;2023-04-25T02:41:28;20.45;;;5.13;;
46731;SDS011;32477;51.474;5.696;2023-04-25T02:43:54;17.95;;;5.50;;
46731;SDS011;32477;51.474;5.696;2023-04-25T02:46:20;23.65;;;6.53;;
46731;SDS011;32477;51.474;5.696;2023-04-25T02:48:46;39.80;;;6.72;;
46731;SDS011;32477;51.474;5.696;2023-04-25T02:51:12;25.02;;;5.57;;
46731;SDS011;32477;51.474;5.696;2023-04-25T02:53:37;28.30;;;6.90;;
46731;SDS011;32477;51.474;5.696;2023-04-25T02:56:03;23.60;;;5.70;;
46731;SDS011;32477;51.474;5.696;2023-04-25T02:58:29;14.30;;;5.38;;
46731;SDS011;32477;51.474;5.696;2023-04-25T03:00:55;19.85;;;5.55;;
46731;SDS011;32477;51.474;5.696;2023-04-25T03:03:20;27.40;;;6.25;;
46731;SDS011;32477;51.474;5.696;2023-04-25T03:05:48;20.17;;;5.75;;
46731;SDS011;32477;51.474;5.696;2023-04-25T03:08:14;33.05;;;6.03;;
46731;SDS011;32477;51.474;5.696;2023-04-25T03:10:40;20.90;;;5.75;;
46731;SDS011;32477;51.474;5.696;2023-04-25T03:13:06;21.95;;;6.28;;
46731;SDS011;32477;51.474;5.696;2023-04-25T03:15:31;25.92;;;5.45;;
46731;SDS011;32477;51.474;5.696;2023-04-25T03:17:57;24.08;;;6.22;;
46731;SDS011;32477;51.474;5.696;2023-04-25T03:20:23;28.80;;;6.28;;
46731;SDS011;32477;51.474;5.696;2023-04-25T03:22:48;32.88;;;7.03;;
46731;SDS011;32477;51.474;5.696;2023-04-25T03:25:14;25.20;;;5.57;;
46731;SDS011;32477;51.474;5.696;2023-04-25T03:27:40;36.65;;;6.45;;
46731;SDS011;32477;51.474;5.696;2023-04-25T03:30:05;38.53;;;6.45;;
46731;SDS011;32477;51.474;5.696;2023-04-25T03:32:32;37.92;;;7.10;;
46731;SDS011;32477;51.474;5.696;2023-04-25T03:34:58;19.92;;;6.47;;
46731;SDS011;32477;51.474;5.696;2023-04-25T03:37:24;23.05;;;6.13;;
46731;SDS011;32477;51.474;5.696;2023-04-25T03:39:50;28.65;;;6.30;;
46731;SDS011;32477;51.474;5.696;2023-04-25T03:42:15;26.67;;;6.88;;
46731;SDS011;32477;51.474;5.696;2023-04-25T03:44:41;28.23;;;6.40;;
46731;SDS011;32477;51.474;5.696;2023-04-25T03:47:07;22.08;;;6.03;;
46731;SDS011;32477;51.474;5.696;2023-04-25T03:49:33;31.13;;;6.30;;
46731;SDS011;32477;51.474;5.696;2023-04-25T03:52:01;33.15;;;6.82;;
46731;SDS011;32477;51.474;5.696;2023-04-25T03:54:26;27.10;;;6.78;;
46731;SDS011;32477;51.474;5.696;2023-04-25T03:56:52;38.58;;;7.40;;
46731;SDS011;32477;51.474;5.696;2023-04-25T03:59:18;24.75;;;6.65;;
46731;SDS011;32477;51.474;5.696;2023-04-25T04:01:43;22.70;;;6.00;;
46731;SDS011;32477;51.474;5.696;2023-04-25T04:04:09;25.42;;;6.80;;
46731;SDS011;32477;51.474;5.696;2023-04-25T04:06:35;30.40;;;7.05;;
46731;SDS011;32477;51.474;5.696;2023-04-25T04:09:01;21.73;;;6.00;;
46731;SDS011;32477;51.474;5.696;2023-04-25T04:11:28;33.67;;;6.50;;
46731;SDS011;32477;51.474;5.696;2023-04-25T04:13:53;25.83;;;5.75;;
46731;SDS011;32477;51.474;5.696;2023-04-25T04:16:19;31.23;;;6.25;;
46731;SDS011;32477;51.474;5.696;2023-04-25T04:18:45;27.10;;;7.15;;
46731;SDS011;32477;51.474;5.696;2023-04-25T04:21:11;29.60;;;6.38;;
46731;SDS011;32477;51.474;5.696;2023-04-25T04:23:36;30.55;;;6.00;;
46731;SDS011;32477;51.474;5.696;2023-04-25T04:26:02;25.17;;;5.75;;
46731;SDS011;32477;51.474;5.696;2023-04-25T04:28:28;25.85;;;5.93;;
46731;SDS011;32477;51.474;5.696;2023-04-25T04:30:54;28.02;;;5.63;;
46731;SDS011;32477;51.474;5.696;2023-04-25T04:33:20;20.33;;;5.88;;
46731;SDS011;32477;51.474;5.696;2023-04-25T04:35:46;30.45;;;6.25;;
46731;SDS011;32477;51.474;5.696;2023-04-25T04:38:12;24.85;;;5.47;;
46731;SDS011;32477;51.474;5.696;2023-04-25T04:40:40;27.15;;;6.32;;
46731;SDS011;32477;51.474;5.696;2023-04-25T04:43:07;31.52;;;6.18;;
46731;SDS011;32477;51.474;5.696;2023-04-25T04:45:35;26.33;;;6.22;;
46731;SDS011;32477;51.474;5.696;2023-04-25T04:48:04;25.13;;;7.35;;
46731;SDS011;32477;51.474;5.696;2023-04-25T04:50:30;16.52;;;5.35;;
46731;SDS011;32477;51.474;5.696;2023-04-25T04:52:57;24.98;;;5.70;;
46731;SDS011;32477;51.474;5.696;2023-04-25T04:55:23;43.85;;;6.95;;
46731;SDS011;32477;51.474;5.696;2023-04-25T04:57:49;25.17;;;5.22;;
46731;SDS011;32477;51.474;5.696;2023-04-25T05:00:15;22.10;;;5.43;;
46731;SDS011;32477;51.474;5.696;2023-04-25T05:02:41;22.85;;;5.15;;
46731;SDS011;32477;51.474;5.696;2023-04-25T05:05:06;19.58;;;4.30;;
46731;SDS011;32477;51.474;5.696;2023-04-25T05:07:33;29.23;;;5.13;;
46731;SDS011;32477;51.474;5.696;2023-04-25T05:09:59;20.95;;;5.30;;
46731;SDS011;32477;51.474;5.696;2023-04-25T05:12:24;25.90;;;4.60;;
46731;SDS011;32477;51.474;5.696;2023-04-25T05:14:50;21.65;;;4.78;;
46731;SDS011;32477;51.474;5.696;2023-04-25T05:17:15;23.05;;;4.55;;
46731;SDS011;32477;51.474;5.696;2023-04-25T05:19:41;17.45;;;5.75;;
46731;SDS011;32477;51.474;5.696;2023-04-25T05:22:07;15.35;;;5.28;;
46731;SDS011;32477;51.474;5.696;2023-04-25T05:24:32;31.05;;;4.53;;
46731;SDS011;32477;51.474;5.696;2023-04-25T05:26:58;20.08;;;4.53;;
46731;SDS011;32477;51.474;5.696;2023-04-25T05:29:24;19.88;;;4.57;;
46731;SDS011;32477;51.474;5.696;2023-04-25T05:31:49;16.98;;;4.47;;
46731;SDS011;32477;51.474;5.696;2023-04-25T05:34:15;13.82;;;4.20;;
46731;SDS011;32477;51.474;5.696;2023-04-25T05:36:41;29.17;;;5.68;;
46731;SDS011;32477;51.474;5.696;2023-04-25T05:39:07;21.98;;;4.22;;
46731;SDS011;32477;51.474;5.696;2023-04-25T05:41:33;24.52;;;3.70;;
46731;SDS011;32477;51.474;5.696;2023-04-25T05:43:59;21.77;;;4.57;;
46731;SDS011;32477;51.474;5.696;2023-04-25T05:46:25;18.20;;;4.80;;
46731;SDS011;32477;51.474;5.696;2023-04-25T05:48:50;16.85;;;4.57;;
46731;SDS011;32477;51.474;5.696;2023-04-25T05:51:16;17.02;;;4.50;;
46731;SDS011;32477;51.474;5.696;2023-04-25T05:53:43;18.55;;;4.18;;
46731;SDS011;32477;51.474;5.696;2023-04-25T05:56:09;15.73;;;3.70;;
46731;SDS011;32477;51.474;5.696;2023-04-25T05:58:34;19.13;;;4.13;;
46731;SDS011;32477;51.474;5.696;2023-04-25T06:01:01;21.40;;;3.75;;
46731;SDS011;32477;51.474;5.696;2023-04-25T06:03:27;13.23;;;3.80;;
46731;SDS011;32477;51.474;5.696;2023-04-25T06:05:53;22.42;;;3.90;;
46731;SDS011;32477;51.474;5.696;2023-04-25T06:08:19;15.80;;;4.05;;
46731;SDS011;32477;51.474;5.696;2023-04-25T06:10:44;19.65;;;3.97;;
46731;SDS011;32477;51.474;5.696;2023-04-25T06:13:10;20.17;;;3.97;;
46731;SDS011;32477;51.474;5.696;2023-04-25T06:15:36;16.38;;;3.72;;
46731;SDS011;32477;51.474;5.696;2023-04-25T06:18:01;19.17;;;4.45;;
46731;SDS011;32477;51.474;5.696;2023-04-25T06:20:27;24.23;;;5.07;;
46731;SDS011;32477;51.474;5.696;2023-04-25T06:22:53;12.98;;;3.70;;
46731;SDS011;32477;51.474;5.696;2023-04-25T06:25:18;13.95;;;3.92;;
46731;SDS011;32477;51.474;5.696;2023-04-25T06:27:45;16.50;;;3.72;;
46731;SDS011;32477;51.474;5.696;2023-04-25T06:30:11;9.40;;;2.72;;
46731;SDS011;32477;51.474;5.696;2023-04-25T06:32:37;10.65;;;2.97;;
46731;SDS011;32477;51.474;5.696;2023-04-25T06:35:03;17.00;;;3.25;;
46731;SDS011;32477;51.474;5.696;2023-04-25T06:37:30;11.50;;;3.28;;
46731;SDS011;32477;51.474;5.696;2023-04-25T06:39:56;11.02;;;3.05;;
46731;SDS011;32477;51.474;5.696;2023-04-25T06:42:21;12.73;;;3.40;;
46731;SDS011;32477;51.474;5.696;2023-04-25T06:44:47;8.50;;;2.30;;
46731;SDS011;32477;51.474;5.696;2023-04-25T06:47:13;7.95;;;2.42;;
46731;SDS011;32477;51.474;5.696;2023-04-25T06:49:39;13.50;;;2.95;;
46731;SDS011;32477;51.474;5.696;2023-04-25T06:52:04;15.95;;;3.50;;
46731;SDS011;32477;51.474;5.696;2023-04-25T06:54:30;11.00;;;3.05;;
46731;SDS011;32477;51.474;5.696;2023-04-25T06:56:56;18.38;;;3.95;;
46731;SDS011;32477;51.474;5.696;2023-04-25T06:59:22;16.13;;;2.72;;
46731;SDS011;32477;51.474;5.696;2023-04-25T07:01:48;16.85;;;3.10;;
46731;SDS011;32477;51.474;5.696;2023-04-25T07:04:13;10.82;;;2.67;;
46731;SDS011;32477;51.474;5.696;2023-04-25T07:06:39;10.23;;;2.65;;
46731;SDS011;32477;51.474;5.696;2023-04-25T07:09:07;6.68;;;2.42;;
46731;SDS011;32477;51.474;5.696;2023-04-25T07:11:33;14.77;;;3.05;;
46731;SDS011;32477;51.474;5.696;2023-04-25T07:13:59;10.15;;;2.97;;
46731;SDS011;32477;51.474;5.696;2023-04-25T07:16:25;13.45;;;2.50;;
46731;SDS011;32477;51.474;5.696;2023-04-25T07:18:51;18.67;;;4.50;;
46731;SDS011;32477;51.474;5.696;2023-04-25T07:21:16;9.18;;;2.22;;
46731;SDS011;32477;51.474;5.696;2023-04-25T07:23:42;10.98;;;2.38;;
46731;SDS011;32477;51.474;5.696;2023-04-25T07:26:07;10.40;;;3.15;;
46731;SDS011;32477;51.474;5.696;2023-04-25T07:28:33;11.90;;;2.25;;
46731;SDS011;32477;51.474;5.696;2023-04-25T07:30:59;9.30;;;2.47;;
46731;SDS011;32477;51.474;5.696;2023-04-25T07:33:24;13.32;;;2.50;;
46731;SDS011;32477;51.474;5.696;2023-04-25T07:35:50;9.65;;;2.58;;
46731;SDS011;32477;51.474;5.696;2023-04-25T07:38:17;14.32;;;2.58;;
46731;SDS011;32477;51.474;5.696;2023-04-25T07:40:42;15.40;;;2.85;;
46731;SDS011;32477;51.474;5.696;2023-04-25T07:43:08;10.90;;;2.30;;
46731;SDS011;32477;51.474;5.696;2023-04-25T07:45:34;5.40;;;1.75;;
46731;SDS011;32477;51.474;5.696;2023-04-25T07:47:59;10.15;;;2.35;;
46731;SDS011;32477;51.474;5.696;2023-04-25T07:50:25;11.30;;;2.38;;
46731;SDS011;32477;51.474;5.696;2023-04-25T07:52:51;8.30;;;2.42;;
46731;SDS011;32477;51.474;5.696;2023-04-25T07:55:17;6.43;;;1.80;;
46731;SDS011;32477;51.474;5.696;2023-04-25T07:57:42;7.88;;;2.03;;
46731;SDS011;32477;51.474;5.696;2023-04-25T08:00:08;7.50;;;1.77;;
46731;SDS011;32477;51.474;5.696;2023-04-25T08:02:34;7.20;;;2.15;;
46731;SDS011;32477;51.474;5.696;2023-04-25T08:05:01;7.20;;;1.75;;
46731;SDS011;32477;51.474;5.696;2023-04-25T08:07:27;14.15;;;3.05;;
46731;SDS011;32477;51.474;5.696;2023-04-25T08:09:53;11.13;;;2.22;;
46731;SDS011;32477;51.474;5.696;2023-04-25T08:12:19;6.00;;;1.63;;
46731;SDS011;32477;51.474;5.696;2023-04-25T08:14:45;8.70;;;2.03;;
46731;SDS011;32477;51.474;5.696;2023-04-25T08:17:11;10.75;;;1.73;;
46731;SDS011;32477;51.474;5.696;2023-04-25T08:19:37;6.88;;;1.65;;
46731;SDS011;32477;51.474;5.696;2023-04-25T08:22:03;9.63;;;2.40;;
46731;SDS011;32477;51.474;5.696;2023-04-25T08:24:28;7.72;;;2.15;;
46731;SDS011;32477;51.474;5.696;2023-04-25T08:26:54;8.20;;;2.13;;
46731;SDS011;32477;51.474;5.696;2023-04-25T08:29:20;11.88;;;2.10;;
46731;SDS011;32477;51.474;5.696;2023-04-25T08:31:45;10.65;;;2.70;;
46731;SDS011;32477;51.474;5.696;2023-04-25T08:34:11;7.60;;;2.00;;
46731;SDS011;32477;51.474;5.696;2023-04-25T08:36:37;11.55;;;2.47;;
46731;SDS011;32477;51.474;5.696;2023-04-25T08:39:03;8.30;;;2.15;;
46731;SDS011;32477;51.474;5.696;2023-04-25T08:41:29;8.48;;;2.22;;
46731;SDS011;32477;51.474;5.696;2023-04-25T08:43:55;7.00;;;2.03;;
46731;SDS011;32477;51.474;5.696;2023-04-25T08:46:22;5.32;;;1.65;;
46731;SDS011;32477;51.474;5.696;2023-04-25T08:48:48;10.30;;;1.75;;
46731;SDS011;32477;51.474;5.696;2023-04-25T08:51:21;13.43;;;1.83;;
46731;SDS011;32477;51.474;5.696;2023-04-25T08:53:50;6.47;;;1.65;;
46731;SDS011;32477;51.474;5.696;2023-04-25T08:56:17;8.73;;;2.08;;
46731;SDS011;32477;51.474;5.696;2023-04-25T08:58:47;4.40;;;1.20;;
46731;SDS011;32477;51.474;5.696;2023-04-25T09:01:14;9.90;;;2.15;;
46731;SDS011;32477;51.474;5.696;2023-04-25T09:03:40;5.68;;;1.60;;
46731;SDS011;32477;51.474;5.696;2023-04-25T09:06:10;8.07;;;1.67;;
46731;SDS011;32477;51.474;5.696;2023-04-25T09:08:37;10.98;;;1.65;;
46731;SDS011;32477;51.474;5.696;2023-04-25T09:11:05;9.07;;;2.25;;
46731;SDS011;32477;51.474;5.696;2023-04-25T09:13:31;12.52;;;1.85;;
46731;SDS011;32477;51.474;5.696;2023-04-25T09:15:57;4.50;;;1.30;;
46731;SDS011;32477;51.474;5.696;2023-04-25T09:18:26;12.65;;;1.95;;
46731;SDS011;32477;51.474;5.696;2023-04-25T09:20:54;6.03;;;1.80;;
46731;SDS011;32477;51.474;5.696;2023-04-25T09:23:22;9.88;;;2.45;;
46731;SDS011;32477;51.474;5.696;2023-04-25T09:25:50;10.73;;;2.10;;
46731;SDS011;32477;51.474;5.696;2023-04-25T09:28:26;8.32;;;1.63;;
46731;SDS011;32477;51.474;5.696;2023-04-25T09:30:56;11.00;;;1.55;;
46731;SDS011;32477;51.474;5.696;2023-04-25T09:33:26;8.95;;;2.03;;
46731;SDS011;32477;51.474;5.696;2023-04-25T09:35:54;8.48;;;1.52;;
46731;SDS011;32477;51.474;5.696;2023-04-25T09:38:27;7.32;;;1.85;;
46731;SDS011;32477;51.474;5.696;2023-04-25T09:41:05;6.93;;;1.60;;
46731;SDS011;32477;51.474;5.696;2023-04-25T09:43:31;11.40;;;1.75;;
46731;SDS011;32477;51.474;5.696;2023-04-25T09:45:56;11.38;;;1.80;;
46731;SDS011;32477;51.474;5.696;2023-04-25T09:48:24;8.10;;;1.98;;
46731;SDS011;32477;51.474;5.696;2023-04-25T09:53:41;6.57;;;1.77;;
46731;SDS011;32477;51.474;5.696;2023-04-25T09:56:09;11.25;;;2.22;;
46731;SDS011;32477;51.474;5.696;2023-04-25T09:58:37;5.97;;;1.85;;
46731;SDS011;32477;51.474;5.696;2023-04-25T10:01:05;8.77;;;2.15;;
46731;SDS011;32477;51.474;5.696;2023-04-25T10:03:33;3.40;;;0.95;;
46731;SDS011;32477;51.474;5.696;2023-04-25T10:06:00;3.72;;;1.08;;
46731;SDS011;32477;51.474;5.696;2023-04-25T10:08:31;2.20;;;0.68;;
46731;SDS011;32477;51.474;5.696;2023-04-25T10:10:59;2.30;;;0.80;;
46731;SDS011;32477;51.474;5.696;2023-04-25T10:13:27;3.40;;;0.93;;
46731;SDS011;32477;51.474;5.696;2023-04-25T10:15:54;1.42;;;0.57;;
46731;SDS011;32477;51.474;5.696;2023-04-25T10:18:22;5.05;;;1.48;;
46731;SDS011;32477;51.474;5.696;2023-04-25T10:20:50;2.13;;;0.63;;
46731;SDS011;32477;51.474;5.696;2023-04-25T10:23:15;4.72;;;1.23;;
46731;SDS011;32477;51.474;5.696;2023-04-25T10:25:42;3.63;;;0.95;;
46731;SDS011;32477;51.474;5.696;2023-04-25T10:28:08;3.38;;;0.73;;
46731;SDS011;32477;51.474;5.696;2023-04-25T10:30:34;3.35;;;0.98;;
46731;SDS011;32477;51.474;5.696;2023-04-25T10:32:59;4.30;;;1.05;;
46731;SDS011;32477;51.474;5.696;2023-04-25T10:35:29;5.68;;;1.30;;
46731;SDS011;32477;51.474;5.696;2023-04-25T10:38:11;9.20;;;1.55;;
46731;SDS011;32477;51.474;5.696;2023-04-25T10:40:39;4.63;;;0.80;;
46731;SDS011;32477;51.474;5.696;2023-04-25T10:45:52;1.80;;;0.75;;
46731;SDS011;32477;51.474;5.696;2023-04-25T10:48:25;2.67;;;0.70;;
46731;SDS011;32477;51.474;5.696;2023-04-25T10:51:06;5.00;;;1.42;;
46731;SDS011;32477;51.474;5.696;2023-04-25T10:53:35;4.72;;;1.30;;
46731;SDS011;32477;51.474;5.696;2023-04-25T10:58:41;7.82;;;0.98;;
46731;SDS011;32477;51.474;5.696;2023-04-25T11:01:07;6.15;;;1.38;;
46731;SDS011;32477;51.474;5.696;2023-04-25T11:03:37;4.55;;;1.15;;
46731;SDS011;32477;51.474;5.696;2023-04-25T11:06:05;6.28;;;1.45;;
46731;SDS011;32477;51.474;5.696;2023-04-25T11:08:51;6.80;;;1.70;;
46731;SDS011;32477;51.474;5.696;2023-04-25T11:11:17;5.25;;;1.17;;
46731;SDS011;32477;51.474;5.696;2023-04-25T11:13:43;7.90;;;1.67;;
46731;SDS011;32477;51.474;5.696;2023-04-25T11:16:13;12.38;;;1.45;;
46731;SDS011;32477;51.474;5.696;2023-04-25T11:18:40;4.65;;;1.33;;
46731;SDS011;32477;51.474;5.696;2023-04-25T11:21:07;8.30;;;1.58;;
46731;SDS011;32477;51.474;5.696;2023-04-25T11:23:33;7.10;;;1.60;;
46731;SDS011;32477;51.474;5.696;2023-04-25T11:25:58;9.80;;;1.90;;
46731;SDS011;32477;51.474;5.696;2023-04-25T11:28:26;10.48;;;1.88;;
46731;SDS011;32477;51.474;5.696;2023-04-25T11:30:52;7.95;;;1.65;;
46731;SDS011;32477;51.474;5.696;2023-04-25T11:33:18;4.72;;;1.63;;
46731;SDS011;32477;51.474;5.696;2023-04-25T11:35:47;8.70;;;1.83;;
46731;SDS011;32477;51.474;5.696;2023-04-25T11:38:13;9.00;;;1.90;;
46731;SDS011;32477;51.474;5.696;2023-04-25T11:40:39;10.30;;;1.75;;
46731;SDS011;32477;51.474;5.696;2023-04-25T11:43:05;17.17;;;2.55;;
46731;SDS011;32477;51.474;5.696;2023-04-25T11:45:32;7.22;;;1.77;;
46731;SDS011;32477;51.474;5.696;2023-04-25T11:48:02;9.25;;;2.30;;
46731;SDS011;32477;51.474;5.696;2023-04-25T11:50:28;6.95;;;1.67;;
46731;SDS011;32477;51.474;5.696;2023-04-25T11:52:55;8.68;;;1.33;;
46731;SDS011;32477;51.474;5.696;2023-04-25T11:55:21;7.00;;;1.50;;
46731;SDS011;32477;51.474;5.696;2023-04-25T11:57:48;7.47;;;1.38;;
46731;SDS011;32477;51.474;5.696;2023-04-25T12:00:16;5.20;;;1.42;;
46731;SDS011;32477;51.474;5.696;2023-04-25T12:02:44;5.45;;;1.63;;
46731;SDS011;32477;51.474;5.696;2023-04-25T12:05:12;6.22;;;2.10;;
46731;SDS011;32477;51.474;5.696;2023-04-25T12:07:39;6.47;;;1.70;;
46731;SDS011;32477;51.474;5.696;2023-04-25T12:12:36;4.55;;;1.63;;
46731;SDS011;32477;51.474;5.696;2023-04-25T12:15:10;6.15;;;1.65;;
46731;SDS011;32477;51.474;5.696;2023-04-25T12:17:36;10.50;;;2.00;;
46731;SDS011;32477;51.474;5.696;2023-04-25T12:20:05;6.82;;;2.08;;
46731;SDS011;32477;51.474;5.696;2023-04-25T12:22:35;4.90;;;1.50;;
46731;SDS011;32477;51.474;5.696;2023-04-25T12:25:02;8.95;;;1.65;;
46731;SDS011;32477;51.474;5.696;2023-04-25T12:27:30;2.88;;;1.13;;
46731;SDS011;32477;51.474;5.696;2023-04-25T12:29:56;6.57;;;1.25;;
46731;SDS011;32477;51.474;5.696;2023-04-25T12:32:23;4.97;;;1.08;;
46731;SDS011;32477;51.474;5.696;2023-04-25T12:34:49;5.22;;;1.13;;
46731;SDS011;32477;51.474;5.696;2023-04-25T12:37:15;7.07;;;1.15;;
46731;SDS011;32477;51.474;5.696;2023-04-25T12:39:41;5.10;;;1.00;;
46731;SDS011;32477;51.474;5.696;2023-04-25T12:42:07;5.85;;;1.35;;
46731;SDS011;32477;51.474;5.696;2023-04-25T12:44:33;2.85;;;0.98;;
46731;SDS011;32477;51.474;5.696;2023-04-25T12:46:59;4.90;;;1.02;;
46731;SDS011;32477;51.474;5.696;2023-04-25T12:49:25;10.50;;;1.73;;
46731;SDS011;32477;51.474;5.696;2023-04-25T12:51:50;7.13;;;1.23;;
46731;SDS011;32477;51.474;5.696;2023-04-25T12:54:16;4.85;;;0.93;;
46731;SDS011;32477;51.474;5.696;2023-04-25T12:56:42;7.07;;;0.70;;
46731;SDS011;32477;51.474;5.696;2023-04-25T12:59:08;4.38;;;0.90;;
46731;SDS011;32477;51.474;5.696;2023-04-25T13:01:34;5.47;;;0.77;;
46731;SDS011;32477;51.474;5.696;2023-04-25T13:04:01;5.40;;;0.82;;
46731;SDS011;32477;51.474;5.696;2023-04-25T13:06:27;4.25;;;0.90;;
46731;SDS011;32477;51.474;5.696;2023-04-25T13:08:52;1.52;;;0.70;;
46731;SDS011;32477;51.474;5.696;2023-04-25T13:11:18;3.70;;;0.82;;
46731;SDS011;32477;51.474;5.696;2023-04-25T13:13:44;4.65;;;1.10;;
46731;SDS011;32477;51.474;5.696;2023-04-25T13:16:10;5.57;;;0.70;;
46731;SDS011;32477;51.474;5.696;2023-04-25T13:18:37;2.03;;;0.85;;
46731;SDS011;32477;51.474;5.696;2023-04-25T13:21:02;5.03;;;0.82;;
46731;SDS011;32477;51.474;5.696;2023-04-25T13:23:28;8.77;;;1.05;;
46731;SDS011;32477;51.474;5.696;2023-04-25T13:25:54;5.63;;;1.10;;
46731;SDS011;32477;51.474;5.696;2023-04-25T13:28:22;6.65;;;1.42;;
46731;SDS011;32477;51.474;5.696;2023-04-25T13:31:00;3.22;;;1.10;;
46731;SDS011;32477;51.474;5.696;2023-04-25T13:33:26;8.70;;;1.77;;
46731;SDS011;32477;51.474;5.696;2023-04-25T13:35:51;8.52;;;1.35;;
46731;SDS011;32477;51.474;5.696;2023-04-25T13:38:22;3.30;;;1.20;;
46731;SDS011;32477;51.474;5.696;2023-04-25T13:40:49;5.07;;;1.13;;
46731;SDS011;32477;51.474;5.696;2023-04-25T13:43:17;6.85;;;1.88;;
46731;SDS011;32477;51.474;5.696;2023-04-25T13:45:47;9.25;;;1.17;;
46731;SDS011;32477;51.474;5.696;2023-04-25T13:48:13;4.30;;;0.98;;
46731;SDS011;32477;51.474;5.696;2023-04-25T13:50:38;6.60;;;0.85;;
46731;SDS011;32477;51.474;5.696;2023-04-25T13:53:04;8.70;;;3.60;;
46731;SDS011;32477;51.474;5.696;2023-04-25T13:55:30;5.57;;;1.17;;
46731;SDS011;32477;51.474;5.696;2023-04-25T13:57:56;8.23;;;1.15;;
46731;SDS011;32477;51.474;5.696;2023-04-25T14:00:22;5.53;;;1.42;;
46731;SDS011;32477;51.474;5.696;2023-04-25T14:02:48;7.18;;;1.25;;
46731;SDS011;32477;51.474;5.696;2023-04-25T14:05:14;3.67;;;1.10;;
46731;SDS011;32477;51.474;5.696;2023-04-25T14:07:40;4.72;;;1.00;;
46731;SDS011;32477;51.474;5.696;2023-04-25T14:10:05;6.43;;;1.10;;
46731;SDS011;32477;51.474;5.696;2023-04-25T14:12:32;11.68;;;1.48;;
46731;SDS011;32477;51.474;5.696;2023-04-25T14:14:57;6.03;;;0.80;;
46731;SDS011;32477;51.474;5.696;2023-04-25T14:17:23;7.75;;;1.35;;
46731;SDS011;32477;51.474;5.696;2023-04-25T14:19:49;5.45;;;1.45;;
46731;SDS011;32477;51.474;5.696;2023-04-25T14:22:15;5.15;;;1.50;;
46731;SDS011;32477;51.474;5.696;2023-04-25T14:24:41;13.05;;;1.52;;
46731;SDS011;32477;51.474;5.696;2023-04-25T14:27:06;8.60;;;1.70;;
46731;SDS011;32477;51.474;5.696;2023-04-25T14:29:32;6.90;;;1.83;;
46731;SDS011;32477;51.474;5.696;2023-04-25T14:31:58;3.28;;;1.70;;
46731;SDS011;32477;51.474;5.696;2023-04-25T14:34:24;8.20;;;1.30;;
46731;SDS011;32477;51.474;5.696;2023-04-25T14:36:51;9.63;;;1.60;;
46731;SDS011;32477;51.474;5.696;2023-04-25T14:39:17;6.78;;;1.67;;
46731;SDS011;32477;51.474;5.696;2023-04-25T14:41:43;10.85;;;1.73;;
46731;SDS011;32477;51.474;5.696;2023-04-25T14:44:09;12.38;;;1.50;;
46731;SDS011;32477;51.474;5.696;2023-04-25T14:46:35;5.25;;;1.70;;